Strona główna
METAR-TAF:

METAR-TAF

Lotnisko :

Port lotniczy Bintulu

Bintulu, Malezja

Szerokość geograficzna: 03-12N, Długość geograficzna: 113-02E, wysokość: 2 m

Aktualna obserwacja pogody

Raport powstał 37 minut temu, godzina 02:00 UTC
Wiatr 3 kt od wschód, zmienny między północno-północny wschód i południowo-południowy wschód
Temperatura 30°C
Wilgotność 75%
Ciśnienie 1012 hPa
Widzialność 10 km lub więcej
Mało chmury na wysokości 1400 ft
Przerywane chmury na wysokości 30000 ft

METAR: WBGB 230200Z 09003KT 020V150 9999 FEW014 BKN300 30/25 Q1012

czas: 10:37 (02:37 UTC)

Prognoza

Raport powstał 3 godziny i 37 minut temu, godzina 23:00 UTC
Prognoza ważna od 23 godzina 00 UTC do 24 godzina 00 UTC
Wiatr 5 kt od wschodnio-południowy wschód
Widzialność 10 km lub więcej
Mało chmury na wysokości 1600 ft
Przejściowo
od 23 godzina 06 UTC do 23 godzina 10 UTC
Widzialność: 4000 m
Mało chmury na wysokości 1500 ft, Cumulonimbus.
burza, deszcz

TAF: WBGB 222300Z 2300/2400 12005KT 9999 FEW016 TEMPO 2306/2310 4000 TSRA FEW015CB

Obserwacja i prognoza pogody dla ponad 4000 lotnisk (raport METAR i TAF).

Dostępne stacje oznaczono żółtymi i czerwonymi punktami na mapie.

Najedź kursorem aby zobaczyć nazwę stacji.

Kliknij aby zobaczyć obserwacje i prognozy pogody.

Aby zmienić mapę: kliknij na zielony przycisk z czarnym krzyżykiem, aby powiększyć; na zielony przycisk z myślnikiem, aby pomniejszyć; na zielone strzałki, aby przejść do map sąsiednich.


METAR-TAF: